Terminal Aerodrome Forecast
Issued by NWS Albany, NY

Home | Current Version | Previous Version | Text Only | Print | Product List | Glossary On
Versions: 1 2 3 4 5 6 7 8 9 10 11 12 13 14 15 16 17 18 19
000
FTUS41 KALY 211100
TAFPOU
TAF
KPOU 211135Z 2112/2212 00000KT P6SM -SHRA OVC060
     FM211500 VRB03KT 6SM -SHRA BR SCT035 OVC050
     FM220300 02004KT 6SM BR VCSH OVC030
     FM220800 02005KT 5SM BR VCSH OVC015=

USA.gov is the U.S. government's official web portal to all federal, state and local government web resources and services.